Kortessem, Belgium
Current Conditions -  °F | °C
As of 5:50 PM on Thursday 30 Oct 2014 (Local Time) from EBLG Reporting Station
Clear Clear  
Wind Chill: 61°   Ceiling: Unl
Heat Index: 61°   Visibility: 6mi
Dew Point: 55°   Wind: 7mph
Humidity: 82%   Direction: 170°S
Pressure: 30.21"   Gusts: NA
Location:  50.86°N, 5.39°E
Report Text: EBLG 301650Z 17006KT CAVOK 16/13 Q1023 NOSIG
Loading
Personal Weather Stations






























Interactive Weather Map
Tropical Storm Tracking
New forecast layout! Learn more

10-Day Weather Forecast

Advertisements
Track Severe Weather on mobile